Time;durP1;ratioP1;P1;durP2;ratioP2;P2;SDS_P1;SDS_P2;PMS_P1;PMS_P2;Temp;Humidity;BMP_temperature;BMP_pressure;BME280_temperature;BME280_humidity;BME280_pressure;Samples;Min_cycle;Max_cycle;Signal;HPM_P1;HPM_P2
2022/08/30 00:02:34;;;;;;;2.38;1.88;;;14.00;99.90;;;;;;5095653;27;20409;-87
2022/08/30 00:05:00;;;;;;;4.10;2.28;;;14.00;99.90;;;;;;5091091;27;20043;-88
2022/08/30 00:07:26;;;;;;;4.75;2.05;;;14.60;99.90;;;;;;5076669;27;20489;-88
2022/08/30 00:09:52;;;;;;;2.55;1.90;;;14.00;99.90;;;;;;5091676;27;20379;-88
2022/08/30 00:12:19;;;;;;;3.13;2.15;;;14.00;99.90;;;;;;5092426;27;20580;-87
2022/08/30 00:14:46;;;;;;;8.68;2.17;;;14.30;99.90;;;;;;5092671;27;20450;-88
2022/08/30 00:17:12;;;;;;;2.95;1.92;;;13.90;99.90;;;;;;5091394;27;20712;-88
2022/08/30 00:19:38;;;;;;;3.35;2.15;;;13.90;99.90;;;;;;5109693;27;20035;-88
2022/08/30 00:22:05;;;;;;;2.22;1.77;;;13.90;99.90;;;;;;5090816;27;20043;-88
2022/08/30 00:24:31;;;;;;;6.25;1.90;;;14.00;99.90;;;;;;5092774;28;20047;-87
2022/08/30 00:26:57;;;;;;;6.70;1.48;;;13.80;99.90;;;;;;5108625;27;20107;-88
2022/08/30 00:29:23;;;;;;;2.25;1.48;;;13.80;99.90;;;;;;5108880;27;20046;-88
2022/08/30 00:31:49;;;;;;;1.08;0.68;;;13.70;99.90;;;;;;5075834;28;20042;-88
2022/08/30 00:34:15;;;;;;;0.95;0.70;;;13.70;99.90;;;;;;5091345;27;20406;-87
2022/08/30 00:36:42;;;;;;;3.30;1.55;;;13.70;99.90;;;;;;5109855;27;20071;-88
2022/08/30 00:39:08;;;;;;;1.35;1.05;;;13.70;99.90;;;;;;5090904;28;20047;-87
2022/08/30 00:41:34;;;;;;;3.95;1.02;;;13.70;99.90;;;;;;5093082;28;20059;-87
2022/08/30 00:44:00;;;;;;;2.08;1.02;;;13.60;99.90;;;;;;5090919;28;20271;-88
2022/08/30 00:46:26;;;;;;;1.92;1.17;;;13.60;99.90;;;;;;5108768;28;20043;-87
2022/08/30 00:48:52;;;;;;;3.30;1.25;;;13.60;99.90;;;;;;5092004;28;20043;-87
2022/08/30 00:51:20;;;;;;;2.15;1.20;;;13.60;99.90;;;;;;5091637;28;20083;-87
2022/08/30 00:53:53;;;;;;;2.10;1.20;;;14.00;99.90;;;;;;5092713;28;20373;-87
2022/08/30 00:56:21;;;;;;;1.73;1.35;;;14.60;99.90;;;;;;5107572;28;20094;-87
2022/08/30 00:58:51;;;;;;;1.15;0.80;;;13.80;99.90;;;;;;5109071;28;20047;-87
2022/08/30 01:01:18;;;;;;;1.85;1.02;;;13.80;99.90;;;;;;5091242;28;20039;-88
2022/08/30 01:03:44;;;;;;;2.67;1.02;;;13.50;99.90;;;;;;5074944;28;20150;-87
2022/08/30 01:06:14;;;;;;;1.15;0.85;;;13.50;99.90;;;;;;5074681;28;20043;-87
2022/08/30 01:08:40;;;;;;;3.75;1.27;;;13.50;99.90;;;;;;5107651;28;20039;-87
2022/08/30 01:11:07;;;;;;;1.30;1.02;;;13.50;99.90;;;;;;5092374;28;20110;-88
2022/08/30 01:13:34;;;;;;;2.05;1.10;;;13.40;99.90;;;;;;5090757;28;20039;-87
2022/08/30 01:16:00;;;;;;;1.10;0.88;;;13.90;99.90;;;;;;5075950;28;20040;-87
2022/08/30 01:18:27;;;;;;;1.17;0.98;;;13.40;99.90;;;;;;5091255;28;20499;-88
2022/08/30 01:21:27;;;;;;;3.17;1.35;;;13.40;99.90;;;;;;5091721;28;20077;-88
2022/08/30 01:23:57;;;;;;;2.35;1.20;;;13.40;99.90;;;;;;5092276;28;20094;-87
2022/08/30 01:26:25;;;;;;;3.45;1.05;;;13.40;99.90;;;;;;5107614;28;20031;-87
2022/08/30 01:28:56;;;;;;;1.33;0.82;;;13.90;99.90;;;;;;5109556;28;20498;-87
2022/08/30 01:31:22;;;;;;;8.48;1.13;;;14.00;99.90;;;;;;5107425;28;20405;-87
2022/08/30 01:33:48;;;;;;;1.33;0.90;;;13.40;99.90;;;;;;5108421;28;20047;-87
2022/08/30 01:36:16;;;;;;;1.77;1.10;;;13.60;99.90;;;;;;5092091;27;20073;-87
2022/08/30 01:38:50;;;;;;;3.30;1.40;;;13.80;99.90;;;;;;5111487;27;20050;-88
2022/08/30 01:41:32;;;;;;;7.90;1.55;;;13.50;99.90;;;;;;5095770;27;20043;-87
2022/08/30 01:44:00;;;;;;;3.15;1.17;;;13.50;99.90;;;;;;5110636;27;20510;-87
2022/08/30 01:46:30;;;;;;;3.17;1.27;;;13.50;99.90;;;;;;5112349;27;20493;-87
2022/08/30 01:48:57;;;;;;;3.03;1.40;;;13.50;99.90;;;;;;5111644;27;20040;-87
2022/08/30 01:51:26;;;;;;;2.03;1.20;;;13.60;99.90;;;;;;5094099;27;20493;-86
2022/08/30 01:53:52;;;;;;;4.90;1.70;;;13.60;99.90;;;;;;5111655;27;20054;-87
2022/08/30 01:56:18;;;;;;;4.47;1.42;;;13.60;99.90;;;;;;5110597;27;20035;-88
2022/08/30 01:58:44;;;;;;;1.60;1.08;;;14.10;99.90;;;;;;5113058;27;20039;-88
2022/08/30 02:01:13;;;;;;;9.40;1.40;;;13.60;99.90;;;;;;5110224;27;20082;-87
2022/08/30 02:03:41;;;;;;;3.05;1.48;;;13.90;99.90;;;;;;5111860;27;20914;-87
2022/08/30 02:06:11;;;;;;;4.15;1.77;;;13.90;99.90;;;;;;5111843;27;20085;-87
2022/08/30 02:08:39;;;;;;;2.65;1.60;;;13.70;99.90;;;;;;5111115;27;20050;-87
2022/08/30 02:11:05;;;;;;;5.35;1.50;;;13.70;99.90;;;;;;5095696;27;20466;-87
2022/08/30 02:13:32;;;;;;;3.05;1.50;;;13.70;99.90;;;;;;5110330;27;20054;-87
2022/08/30 02:15:58;;;;;;;10.65;2.10;;;12.60;99.90;;;;;;5112774;27;20090;-87
2022/08/30 02:18:25;;;;;;;2.90;1.30;;;13.70;99.90;;;;;;5076378;27;20454;-88
2022/08/30 02:20:51;;;;;;;4.28;1.35;;;14.60;99.90;;;;;;5111434;27;20129;-87
2022/08/30 02:23:16;;;;;;;2.78;1.48;;;14.50;99.90;;;;;;5111035;27;20122;-87
2022/08/30 02:25:44;;;;;;;3.83;1.60;;;14.10;99.90;;;;;;5093499;27;20072;-87
2022/08/30 02:28:10;;;;;;;2.10;1.60;;;14.60;99.90;;;;;;5094536;27;20138;-87
2022/08/30 02:30:36;;;;;;;2.13;1.30;;;13.70;99.90;;;;;;5093453;27;20415;-87
2022/08/30 02:33:03;;;;;;;2.13;1.38;;;14.70;99.90;;;;;;5095322;27;20432;-87
2022/08/30 02:35:28;;;;;;;3.47;1.25;;;15.00;99.90;;;;;;5109788;27;20035;-88
2022/08/30 02:37:54;;;;;;;1.77;1.20;;;14.30;99.90;;;;;;5077522;27;20119;-87
2022/08/30 02:40:21;;;;;;;1.80;1.30;;;14.00;99.90;;;;;;5110548;27;20039;-87
2022/08/30 02:42:47;;;;;;;3.10;1.60;;;13.80;99.90;;;;;;5092883;27;20059;-87
2022/08/30 02:45:14;;;;;;;1.23;1.00;;;13.70;99.90;;;;;;5078013;27;20155;-87
2022/08/30 02:47:41;;;;;;;2.45;1.17;;;13.70;99.90;;;;;;5093120;27;20078;-87
2022/08/30 02:50:08;;;;;;;1.45;1.05;;;15.00;99.90;;;;;;5094162;27;20047;-87
2022/08/30 02:52:35;;;;;;;1.88;1.17;;;13.70;99.90;;;;;;5110025;27;20043;-87
2022/08/30 02:55:03;;;;;;;3.70;2.42;;;14.30;99.90;;;;;;5094112;27;20043;-87
2022/08/30 02:57:28;;;;;;;2.90;2.22;;;13.70;99.90;;;;;;5076573;27;20135;-87
2022/08/30 02:59:54;;;;;;;4.97;2.40;;;13.70;99.90;;;;;;5093157;27;20129;-87
2022/08/30 03:02:21;;;;;;;5.22;2.92;;;13.70;99.90;;;;;;5110601;27;20051;-87
2022/08/30 03:04:48;;;;;;;4.43;3.30;;;14.30;99.90;;;;;;5092305;27;20043;-87
2022/08/30 03:07:14;;;;;;;3.05;2.38;;;13.70;99.90;;;;;;5094628;27;20077;-87
2022/08/30 03:09:40;;;;;;;6.03;3.33;;;14.40;99.90;;;;;;5108887;27;20043;-87
2022/08/30 03:12:07;;;;;;;4.07;3.50;;;13.70;99.90;;;;;;5077038;27;20053;-86
2022/08/30 03:14:35;;;;;;;4.55;3.58;;;13.70;99.90;;;;;;5093174;27;20082;-87
2022/08/30 03:17:01;;;;;;;5.03;3.75;;;14.30;99.90;;;;;;5092600;27;20042;-87
2022/08/30 03:19:27;;;;;;;7.43;4.18;;;14.40;99.90;;;;;;5110905;27;20043;-87
2022/08/30 03:21:53;;;;;;;7.97;4.00;;;13.80;99.90;;;;;;5093119;27;20046;-87
2022/08/30 03:24:19;;;;;;;6.97;4.43;;;13.80;99.90;;;;;;5112697;27;20076;-87
2022/08/30 03:26:45;;;;;;;7.43;4.70;;;13.80;99.90;;;;;;5110390;27;20043;-86
2022/08/30 03:29:11;;;;;;;5.57;4.78;;;13.80;99.90;;;;;;5078185;27;20046;-87
2022/08/30 03:31:37;;;;;;;8.43;5.00;;;13.80;99.90;;;;;;5059934;27;20039;-87
2022/08/30 03:34:04;;;;;;;5.93;4.32;;;13.80;99.90;;;;;;5094000;27;20047;-86
2022/08/30 03:36:31;;;;;;;7.60;4.60;;;14.00;99.90;;;;;;5077559;27;20049;-87
2022/08/30 03:38:56;;;;;;;9.43;4.07;;;13.80;99.90;;;;;;5091994;27;20068;-88
2022/08/30 03:41:23;;;;;;;7.38;3.78;;;13.80;99.90;;;;;;5094736;27;20069;-87
2022/08/30 03:43:49;;;;;;;4.93;3.47;;;13.80;99.90;;;;;;5091697;27;20138;-86
2022/08/30 03:46:16;;;;;;;4.57;2.88;;;14.50;99.90;;;;;;5093121;27;20127;-87
2022/08/30 03:48:42;;;;;;;3.53;2.60;;;13.80;99.90;;;;;;5074972;27;20409;-87
2022/08/30 03:51:08;;;;;;;3.95;2.88;;;13.70;99.90;;;;;;5109082;27;20158;-87
2022/08/30 03:53:34;;;;;;;5.35;3.05;;;13.80;99.90;;;;;;5093511;27;20043;-87
2022/08/30 03:56:00;;;;;;;4.72;2.70;;;13.80;99.90;;;;;;5074123;27;20071;-86
2022/08/30 03:58:26;;;;;;;3.20;2.50;;;13.70;99.90;;;;;;5092634;27;20042;-86
2022/08/30 04:00:52;;;;;;;8.55;2.80;;;14.00;99.90;;;;;;5107689;27;20039;-86
2022/08/30 04:03:19;;;;;;;4.88;2.20;;;14.20;99.90;;;;;;5075646;27;20047;-86
2022/08/30 04:05:45;;;;;;;7.15;2.83;;;13.60;99.90;;;;;;5090898;27;20050;-86
2022/08/30 04:08:11;;;;;;;3.92;2.35;;;13.80;99.90;;;;;;5091410;27;20055;-86
2022/08/30 04:10:37;;;;;;;4.25;2.42;;;13.50;99.90;;;;;;5109147;27;20446;-86
2022/08/30 04:13:02;;;;;;;5.82;2.20;;;14.10;99.90;;;;;;5073748;27;20043;-87
2022/08/30 04:15:28;;;;;;;4.15;2.38;;;14.10;99.90;;;;;;5075741;27;20104;-86
2022/08/30 04:17:54;;;;;;;6.50;2.70;;;13.40;99.90;;;;;;5073356;27;20039;-86
2022/08/30 04:20:20;;;;;;;5.38;2.78;;;14.60;99.90;;;;;;5092709;27;20081;-86
2022/08/30 04:22:46;;;;;;;5.35;2.80;;;13.30;99.90;;;;;;5107612;28;20039;-87
2022/08/30 04:25:12;;;;;;;6.15;2.53;;;13.60;99.90;;;;;;5079603;27;20050;-89
2022/08/30 04:27:38;;;;;;;4.05;2.45;;;14.20;99.90;;;;;;5094231;27;20039;-87
2022/08/30 04:30:04;;;;;;;5.50;2.35;;;13.20;99.90;;;;;;5109916;27;20134;-92
2022/08/30 04:32:30;;;;;;;4.22;1.92;;;13.10;99.90;;;;;;5080235;27;20042;-92
2022/08/30 04:34:59;;;;;;;4.25;2.15;;;13.30;99.90;;;;;;5094282;27;20454;-92
2022/08/30 04:37:25;;;;;;;3.58;2.20;;;13.10;99.90;;;;;;5080256;27;20035;-93
2022/08/30 04:39:56;;;;;;;2.05;1.80;;;13.00;99.90;;;;;;5094812;28;20039;-93
2022/08/30 04:42:23;;;;;;;4.82;2.03;;;13.10;99.90;;;;;;5079112;28;20035;-90
2022/08/30 04:44:49;;;;;;;8.95;2.22;;;13.00;99.90;;;;;;5077458;28;20488;-86
2022/08/30 04:47:15;;;;;;;2.58;1.50;;;14.30;99.90;;;;;;5109757;28;20122;-86
2022/08/30 04:49:41;;;;;;;3.63;2.03;;;12.90;99.90;;;;;;5093435;28;20274;-88
2022/08/30 04:52:07;;;;;;;3.92;1.92;;;12.80;99.90;;;;;;5074897;28;20047;-90
2022/08/30 04:54:34;;;;;;;2.90;1.83;;;13.40;99.90;;;;;;5094556;28;20043;-93
2022/08/30 04:56:59;;;;;;;9.27;2.45;;;12.80;99.90;;;;;;5110790;28;20123;-91
2022/08/30 04:59:25;;;;;;;6.32;2.10;;;12.80;99.90;;;;;;5078978;28;20463;-89
2022/08/30 05:01:51;;;;;;;3.45;2.13;;;13.00;99.90;;;;;;5063323;28;20050;-90
2022/08/30 05:04:17;;;;;;;4.20;2.28;;;12.70;99.90;;;;;;5079322;28;20047;-89
2022/08/30 05:06:43;;;;;;;4.57;2.50;;;12.90;99.90;;;;;;5093855;28;20063;-87
2022/08/30 05:09:08;;;;;;;5.28;2.00;;;12.60;99.90;;;;;;5091506;28;20194;-86
2022/08/30 05:11:34;;;;;;;10.55;2.85;;;13.30;99.90;;;;;;5094932;27;20066;-89
2022/08/30 05:14:00;;;;;;;3.33;2.17;;;12.70;99.90;;;;;;5061485;27;20054;-87
2022/08/30 05:16:26;;;;;;;6.95;2.80;;;12.60;99.90;;;;;;5132661;27;20210;-86
2022/08/30 05:18:53;;;;;;;4.47;2.80;;;13.50;99.90;;;;;;5095286;27;20098;-85
2022/08/30 05:21:21;;;;;;;5.40;2.83;;;12.60;99.90;;;;;;5095827;27;20424;-86
2022/08/30 05:23:48;;;;;;;5.22;2.10;;;12.60;99.90;;;;;;5097761;27;20084;-86
2022/08/30 05:26:21;;;;;;;4.22;2.78;;;12.60;99.90;;;;;;5097316;27;20101;-89
2022/08/30 05:28:47;;;;;;;5.53;2.33;;;12.90;99.90;;;;;;5116928;27;20046;-88
2022/08/30 05:31:31;;;;;;;5.72;3.05;;;12.60;99.90;;;;;;5079560;27;20163;-90
2022/08/30 05:33:58;;;;;;;4.45;2.72;;;12.60;99.90;;;;;;5100081;27;20478;-88
2022/08/30 05:36:27;;;;;;;5.65;2.42;;;12.70;99.90;;;;;;5132581;27;20318;-87
2022/08/30 05:38:54;;;;;;;6.15;3.63;;;12.70;99.90;;;;;;5095207;27;20065;-86
2022/08/30 05:41:22;;;;;;;10.70;3.55;;;11.70;99.90;;;;;;5132038;27;20476;-86
2022/08/30 05:43:50;;;;;;;6.40;3.17;;;12.80;99.90;;;;;;5093392;27;20478;-86
2022/08/30 05:46:18;;;;;;;5.88;3.50;;;12.90;99.90;;;;;;5111881;27;20533;-86
2022/08/30 05:48:45;;;;;;;5.70;3.20;;;13.40;99.90;;;;;;5110674;27;20156;-86
2022/08/30 05:51:15;;;;;;;4.88;3.05;;;13.10;99.90;;;;;;5095660;27;20529;-86
2022/08/30 05:53:41;;;;;;;10.40;3.92;;;13.20;99.90;;;;;;5114864;27;20358;-86
2022/08/30 05:56:11;;;;;;;8.18;3.90;;;13.30;99.90;;;;;;5096670;27;20391;-86
2022/08/30 05:58:37;;;;;;;5.85;3.92;;;13.80;99.90;;;;;;5115700;27;20435;-87
2022/08/30 06:01:03;;;;;;;9.90;3.33;;;14.00;99.90;;;;;;5078504;27;20046;-86
2022/08/30 06:03:31;;;;;;;7.03;3.67;;;13.60;99.90;;;;;;5114104;27;20343;-87
2022/08/30 06:05:57;;;;;;;4.90;3.00;;;13.70;99.90;;;;;;5094257;27;20147;-86
2022/08/30 06:08:22;;;;;;;6.85;3.30;;;13.90;99.90;;;;;;5095566;27;20103;-86
2022/08/30 06:10:48;;;;;;;8.55;3.38;;;14.10;99.90;;;;;;5111253;27;20085;-87
2022/08/30 06:13:14;;;;;;;5.00;3.00;;;14.10;99.90;;;;;;5109655;27;20047;-86
2022/08/30 06:15:42;;;;;;;10.20;3.60;;;14.20;99.90;;;;;;5111667;27;20039;-87
2022/08/30 06:18:08;;;;;;;6.93;2.78;;;14.40;99.90;;;;;;5092631;27;20568;-87
2022/08/30 06:20:41;;;;;;;12.40;3.30;;;14.90;99.90;;;;;;5077634;27;20085;-86
2022/08/30 06:23:08;;;;;;;5.00;2.95;;;14.60;99.90;;;;;;5108769;27;20477;-87
2022/08/30 06:25:37;;;;;;;8.45;2.47;;;14.70;99.90;;;;;;5092961;27;20075;-88
2022/08/30 06:28:05;;;;;;;4.97;2.83;;;14.80;99.90;;;;;;5129190;27;20035;-87
2022/08/30 06:30:31;;;;;;;3.30;2.42;;;15.00;99.90;;;;;;5092006;27;20551;-87
2022/08/30 06:32:57;;;;;;;4.18;2.58;;;15.00;99.90;;;;;;5094251;27;20055;-86
2022/08/30 06:35:23;;;;;;;5.80;2.30;;;15.20;99.90;;;;;;5108800;27;20072;-86
2022/08/30 06:37:49;;;;;;;4.15;2.45;;;15.40;99.90;;;;;;5077192;27;20129;-86
2022/08/30 06:40:17;;;;;;;3.92;2.38;;;15.40;99.90;;;;;;5109181;27;20077;-86
2022/08/30 06:42:42;;;;;;;3.92;2.30;;;15.50;99.90;;;;;;5110123;27;20553;-87
2022/08/30 06:45:09;;;;;;;2.28;1.92;;;15.60;99.90;;;;;;5112702;27;20074;-86
2022/08/30 06:47:34;;;;;;;9.40;2.15;;;15.80;99.90;;;;;;5094356;27;20035;-87
2022/08/30 06:50:00;;;;;;;8.40;1.80;;;16.40;99.90;;;;;;5078311;27;20099;-87
2022/08/30 06:52:26;;;;;;;1.92;1.45;;;16.80;99.90;;;;;;5076739;27;20049;-87
2022/08/30 06:54:54;;;;;;;8.77;1.48;;;16.10;99.90;;;;;;5095538;27;20438;-87
2022/08/30 06:57:19;;;;;;;5.50;1.65;;;16.20;99.90;;;;;;5111502;27;20702;-87
2022/08/30 06:59:48;;;;;;;2.60;1.35;;;16.40;99.90;;;;;;5095450;27;20035;-87
2022/08/30 07:02:14;;;;;;;5.15;1.48;;;16.50;99.90;;;;;;5077576;27;20050;-87
2022/08/30 07:04:39;;;;;;;3.47;1.30;;;16.60;99.90;;;;;;5091933;27;20043;-88
2022/08/30 07:07:08;;;;;;;6.07;1.08;;;16.70;99.90;;;;;;5095244;27;20051;-88
2022/08/30 07:09:34;;;;;;;5.78;1.15;;;17.50;99.90;;;;;;5093183;27;20146;-87
2022/08/30 07:12:06;;;;;;;4.75;1.17;;;16.90;99.90;;;;;;5080064;27;20076;-86
2022/08/30 07:14:32;;;;;;;2.20;0.93;;;17.00;99.90;;;;;;5059480;27;20047;-87
2022/08/30 07:16:57;;;;;;;1.98;1.05;;;17.10;99.90;;;;;;5076591;27;20039;-87
2022/08/30 07:19:23;;;;;;;2.70;0.90;;;17.20;99.90;;;;;;5075854;27;20413;-87
2022/08/30 07:21:49;;;;;;;7.03;1.33;;;17.30;99.90;;;;;;5092206;27;20066;-87
2022/08/30 07:24:15;;;;;;;3.53;1.02;;;18.10;99.90;;;;;;5076908;27;20423;-87
2022/08/30 07:26:48;;;;;;;2.90;0.90;;;17.60;99.90;;;;;;5074609;27;20043;-87
2022/08/30 07:29:15;;;;;;;;;;;17.70;99.90;;;;;;5094598;27;20446;-87
2022/08/30 07:31:41;;;;;;;1.38;0.73;;;17.70;99.90;;;;;;5109088;27;19970;-87
2022/08/30 07:34:08;;;;;;;2.90;0.95;;;17.80;99.90;;;;;;5109039;27;20444;-87
2022/08/30 07:36:35;;;;;;;2.33;0.90;;;17.90;99.90;;;;;;5110181;27;20494;-86
2022/08/30 07:39:01;;;;;;;1.48;0.63;;;18.00;99.90;;;;;;5108153;27;20047;-86
2022/08/30 07:41:29;;;;;;;8.00;1.15;;;18.10;99.90;;;;;;5060526;27;20043;-87
2022/08/30 07:43:56;;;;;;;1.45;0.80;;;18.20;99.90;;;;;;5107825;27;20188;-87
2022/08/30 07:46:24;;;;;;;1.67;0.55;;;18.30;99.90;;;;;;5093311;27;20176;-88
2022/08/30 07:48:50;;;;;;;4.03;0.77;;;18.30;99.90;;;;;;5092030;27;20047;-87
2022/08/30 07:51:19;;;;;;;0.70;0.50;;;18.50;99.90;;;;;;5091570;27;20501;-87
2022/08/30 07:53:45;;;;;;;4.38;0.70;;;18.60;99.90;;;;;;5093108;27;20131;-87
2022/08/30 07:56:11;;;;;;;0.98;0.45;;;18.60;99.90;;;;;;5108437;27;20084;-86
2022/08/30 07:58:38;;;;;;;2.40;0.68;;;18.70;99.90;;;;;;5110644;27;20394;-87
2022/08/30 08:01:09;;;;;;;3.35;0.88;;;18.80;99.90;;;;;;5090795;27;20073;-87
2022/08/30 08:03:35;;;;;;;1.52;0.80;;;18.80;99.90;;;;;;5109881;27;20092;-86
2022/08/30 08:06:03;;;;;;;3.70;0.70;;;18.90;99.90;;;;;;5092565;27;20078;-88
2022/08/30 08:08:29;;;;;;;1.02;0.60;;;19.00;99.90;;;;;;5091568;27;20077;-87
2022/08/30 08:10:56;;;;;;;1.20;0.82;;;19.10;99.90;;;;;;5109703;27;20043;-88
2022/08/30 08:13:22;;;;;;;2.13;0.65;;;19.20;99.90;;;;;;5074013;27;20043;-87
2022/08/30 08:15:48;;;;;;;1.42;0.70;;;19.30;99.90;;;;;;5093371;27;20047;-87
2022/08/30 08:18:14;;;;;;;1.33;0.68;;;19.40;99.90;;;;;;5090549;27;20698;-88
2022/08/30 08:20:40;;;;;;;2.30;0.70;;;19.50;99.90;;;;;;5092997;27;20126;-88
2022/08/30 08:23:06;;;;;;;2.15;0.60;;;19.60;99.90;;;;;;5091597;27;20047;-88
2022/08/30 08:25:32;;;;;;;3.00;0.63;;;19.60;99.90;;;;;;5108823;27;20043;-88
2022/08/30 08:27:57;;;;;;;2.55;0.70;;;19.70;99.90;;;;;;5108845;27;20478;-88
2022/08/30 08:30:23;;;;;;;3.75;0.60;;;19.80;99.90;;;;;;5107682;27;20039;-87
2022/08/30 08:32:51;;;;;;;2.17;1.15;;;19.90;99.90;;;;;;5092394;28;20049;-87
2022/08/30 08:35:17;;;;;;;1.98;0.73;;;20.00;99.90;;;;;;5073419;27;20036;-87
2022/08/30 08:37:42;;;;;;;2.72;0.90;;;20.10;99.90;;;;;;5075905;27;20085;-87
2022/08/30 08:40:13;;;;;;;6.60;0.65;;;20.10;99.90;;;;;;5074522;28;20043;-87
2022/08/30 08:43:06;;;;;;;2.65;0.55;;;20.10;99.90;;;;;;5108105;28;20504;-87
2022/08/30 08:45:32;;;;;;;;;;;20.10;99.90;;;;;;5113109;27;20050;-87
2022/08/30 08:48:03;;;;;;;2.47;0.80;;;20.00;99.90;;;;;;5097221;27;20793;-87
2022/08/30 08:50:29;;;;;;;3.58;0.90;;;20.10;99.90;;;;;;5116281;27;20043;-87
2022/08/30 08:55:57;;;;;;;3.70;0.90;;;20.40;99.90;;;;;;5114395;27;20406;-86
2022/08/30 08:58:28;;;;;;;2.78;0.70;;;20.50;99.90;;;;;;5099414;27;20418;-87
2022/08/30 09:00:56;;;;;;;1.90;0.52;;;20.60;99.90;;;;;;5113838;27;20039;-86
2022/08/30 09:03:25;;;;;;;3.33;0.68;;;20.60;99.90;;;;;;5099476;27;20038;-87
2022/08/30 09:05:52;;;;;;;1.83;0.60;;;20.50;99.90;;;;;;5115654;27;20039;-85
2022/08/30 09:08:20;;;;;;;2.42;0.45;;;20.50;99.90;;;;;;5116764;27;20035;-87
2022/08/30 09:11:05;;;;;;;2.17;0.68;;;20.50;99.90;;;;;;5100414;27;20427;-87
2022/08/30 09:13:32;;;;;;;2.83;0.70;;;20.70;99.90;;;;;;5115478;27;20062;-87
2022/08/30 09:15:59;;;;;;;0.95;0.52;;;20.80;99.90;;;;;;5100919;27;20039;-87
2022/08/30 09:18:44;;;;;;;1.92;0.75;;;20.90;99.90;;;;;;5103365;27;20039;-88
2022/08/30 09:21:12;;;;;;;1.95;0.60;;;21.00;99.90;;;;;;5107567;27;20102;-87
2022/08/30 09:23:49;;;;;;;1.70;0.60;;;20.90;99.90;;;;;;5093063;27;20035;-86
2022/08/30 09:26:31;;;;;;;1.05;0.40;;;20.90;99.90;;;;;;5114313;27;20060;-87
2022/08/30 09:28:58;;;;;;;1.40;0.52;;;21.10;99.90;;;;;;5116684;27;20054;-88
2022/08/30 09:31:30;;;;;;;1.25;0.70;;;21.20;99.90;;;;;;5097775;27;20047;-87
2022/08/30 09:34:21;;;;;;;2.17;0.60;;;21.10;99.90;;;;;;5115324;27;20043;-86
2022/08/30 09:36:52;;;;;;;3.38;1.13;;;20.80;99.90;;;;;;5103291;27;20818;-86
2022/08/30 09:39:36;;;;;;;2.15;0.80;;;20.70;99.90;;;;;;5113992;27;20082;-87
2022/08/30 09:42:17;;;;;;;3.28;0.70;;;20.70;99.90;;;;;;5115804;27;20079;-86
2022/08/30 09:44:43;;;;;;;2.08;0.60;;;20.80;99.90;;;;;;5114941;27;20038;-86
2022/08/30 09:47:24;;;;;;;2.45;0.82;;;20.90;99.90;;;;;;5080219;27;20036;-86
2022/08/30 09:50:10;;;;;;;1.30;0.60;;;21.00;99.90;;;;;;5120008;27;20035;-87
2022/08/30 09:52:47;;;;;;;3.85;0.75;;;21.20;99.90;;;;;;5119528;27;20088;-87
2022/08/30 09:55:18;;;;;;;1.83;0.65;;;21.30;99.90;;;;;;5119314;27;20086;-87
2022/08/30 09:57:56;;;;;;;1.63;0.47;;;21.40;99.90;;;;;;5113885;27;20050;-86
2022/08/30 10:00:30;;;;;;;2.13;0.55;;;21.60;99.90;;;;;;5112227;27;20039;-87
2022/08/30 10:02:58;;;;;;;2.63;0.80;;;21.80;99.90;;;;;;5114549;27;20444;-87
2022/08/30 10:05:46;;;;;;;1.05;0.50;;;22.00;99.90;;;;;;5095807;27;20045;-87
2022/08/30 10:08:11;;;;;;;1.73;0.30;;;22.20;99.90;;;;;;5113791;27;20043;-88
2022/08/30 10:10:50;;;;;;;2.45;0.70;;;22.40;99.90;;;;;;5114182;27;20047;-88
2022/08/30 10:13:35;;;;;;;2.03;0.50;;;22.50;99.90;;;;;;5095134;27;20085;-87
2022/08/30 10:16:30;;;;;;;3.05;0.43;;;22.60;99.90;;;;;;5113228;27;20047;-88
2022/08/30 10:19:14;;;;;;;4.15;0.70;;;22.70;99.90;;;;;;5111656;27;20138;-86
2022/08/30 10:21:42;;;;;;;3.90;1.17;;;22.80;99.90;;;;;;5110998;27;20122;-87
2022/08/30 10:24:12;;;;;;;1.67;0.50;;;22.50;99.90;;;;;;5095732;27;20080;-88
2022/08/30 10:26:49;;;;;;;4.05;0.70;;;22.20;99.70;;;;;;5093453;27;20118;-88
2022/08/30 10:29:41;;;;;;;2.70;0.70;;;21.90;99.90;;;;;;5096053;27;20047;-87
2022/08/30 10:32:27;;;;;;;3.35;0.60;;;21.60;99.90;;;;;;5112851;27;20043;-87
2022/08/30 10:35:21;;;;;;;1.83;0.60;;;21.50;99.90;;;;;;5110832;27;20080;-88
2022/08/30 10:37:51;;;;;;;1.35;0.57;;;21.50;99.90;;;;;;5095271;27;20043;-87
2022/08/30 10:43:33;;;;;;;2.95;0.65;;;21.40;99.90;;;;;;5110979;27;20043;-87
2022/08/30 10:46:15;;;;;;;2.47;0.63;;;21.60;99.90;;;;;;5112562;27;20069;-87
2022/08/30 10:48:43;;;;;;;1.75;0.60;;;21.90;99.90;;;;;;5111820;27;20077;-87
2022/08/30 10:51:27;;;;;;;0.95;0.40;;;22.10;99.90;;;;;;5096895;27;20047;-87
2022/08/30 10:53:59;;;;;;;7.45;0.60;;;22.20;99.90;;;;;;5116093;27;20054;-88
2022/08/30 10:56:34;;;;;;;2.38;0.55;;;22.30;99.90;;;;;;5098521;27;20075;-87
2022/08/30 10:59:03;;;;;;;0.90;0.55;;;22.60;99.90;;;;;;5101215;27;20078;-89
2022/08/30 11:02:09;;;;;;;2.15;0.60;;;22.80;99.90;;;;;;5096630;27;20039;-89
2022/08/30 11:04:52;;;;;;;2.58;0.43;;;22.90;98.10;;;;;;5095751;27;20035;-88
2022/08/30 11:07:56;;;;;;;1.20;0.50;;;22.90;99.20;;;;;;5097381;27;20513;-88
2022/08/30 11:10:34;;;;;;;1.08;0.60;;;22.80;96.70;;;;;;5085896;27;20051;-89
2022/08/30 11:13:16;;;;;;;2.17;0.70;;;22.90;98.30;;;;;;5096423;27;20292;-88
2022/08/30 11:16:05;;;;;;;0.90;0.40;;;22.90;96.90;;;;;;5132295;27;20560;-88
2022/08/30 11:18:46;;;;;;;2.92;0.52;;;23.10;96.00;;;;;;5112312;27;20043;-88
2022/08/30 11:21:31;;;;;;;2.13;0.52;;;23.20;96.00;;;;;;5113861;27;20047;-88
2022/08/30 11:24:03;;;;;;;1.52;0.50;;;23.30;96.50;;;;;;5097221;27;20076;-89
2022/08/30 11:26:44;;;;;;;5.32;0.60;;;23.40;95.80;;;;;;5095139;27;20047;-88
2022/08/30 11:29:37;;;;;;;1.92;0.57;;;23.60;94.60;;;;;;5096467;27;20047;-89
2022/08/30 11:32:23;;;;;;;1.20;0.68;;;23.70;94.30;;;;;;5096207;27;20043;-89
2022/08/30 11:34:57;;;;;;;1.80;0.60;;;23.90;92.80;;;;;;5095030;27;20412;-90
2022/08/30 11:37:37;;;;;;;2.67;1.13;;;23.90;93.90;;;;;;5114372;27;20043;-89
2022/08/30 11:40:06;;;;;;;3.03;0.73;;;24.00;94.30;;;;;;5096426;27;20129;-88
2022/08/30 11:42:46;;;;;;;1.80;0.47;;;24.00;93.90;;;;;;5097513;27;20090;-92
2022/08/30 11:45:21;;;;;;;2.13;0.60;;;23.80;94.20;;;;;;5101263;27;20462;-93
2022/08/30 11:47:50;;;;;;;2.10;0.50;;;23.70;92.40;;;;;;5118490;27;20050;-92
2022/08/30 11:50:46;;;;;;;1.95;0.82;;;23.50;94.10;;;;;;5107356;27;20130;-93
2022/08/30 11:53:20;;;;;;;3.17;0.80;;;23.10;93.00;;;;;;5108311;27;20043;-93
2022/08/30 11:56:21;;;;;;;3.72;0.82;;;22.90;95.30;;;;;;5108450;27;20138;-93
2022/08/30 11:58:53;;;;;;;4.10;0.57;;;23.10;97.00;;;;;;5106341;27;20073;-91
2022/08/30 12:01:25;;;;;;;2.65;0.90;;;23.50;97.10;;;;;;5122111;27;20047;-91
2022/08/30 12:04:12;;;;;;;0.80;0.30;;;23.90;96.80;;;;;;5123104;27;20054;-91
2022/08/30 12:06:41;;;;;;;1.40;0.70;;;24.40;95.90;;;;;;5102358;27;20442;-92
2022/08/30 12:09:09;;;;;;;2.42;0.82;;;24.60;94.70;;;;;;5101474;27;20502;-93
2022/08/30 12:11:35;;;;;;;3.20;0.60;;;24.70;94.40;;;;;;5101696;27;20039;-94
2022/08/30 12:14:03;;;;;;;3.75;0.88;;;24.90;93.70;;;;;;5100801;27;20058;-92
2022/08/30 12:19:32;;;;;;;1.92;0.50;;;24.80;90.20;;;;;;5116630;27;20050;-92
2022/08/30 12:22:04;;;;;;;6.78;1.00;;;24.50;91.30;;;;;;5099603;27;20043;-94
2022/08/30 12:24:39;;;;;;;;;;;24.50;91.40;;;;;;5100359;27;20031;-92
2022/08/30 12:27:23;;;;;;;2.40;1.13;;;24.60;90.50;;;;;;5116528;27;19968;-91
2022/08/30 12:30:00;;;;;;;2.45;0.77;;;24.80;92.00;;;;;;5116008;28;20043;-90
2022/08/30 12:32:27;;;;;;;2.25;0.75;;;24.90;91.90;;;;;;5095875;27;20035;-92
2022/08/30 12:35:05;;;;;;;1.20;0.40;;;24.70;91.70;;;;;;5110233;27;20083;-93
2022/08/30 12:37:40;;;;;;;1.80;0.60;;;24.70;91.20;;;;;;5093058;27;20043;-92
2022/08/30 12:40:11;;;;;;;7.57;0.80;;;24.60;91.50;;;;;;5092245;28;20581;-90
2022/08/30 12:42:40;;;;;;;1.00;0.47;;;24.60;91.60;;;;;;5093358;28;20043;-91
2022/08/30 12:45:12;;;;;;;1.10;0.55;;;24.70;91.20;;;;;;5092893;28;20051;-91
2022/08/30 12:47:49;;;;;;;1.45;0.50;;;24.70;90.70;;;;;;5110533;28;20036;-92
2022/08/30 12:50:28;;;;;;;2.42;0.63;;;24.60;90.10;;;;;;5109955;28;20059;-89
2022/08/30 12:53:10;;;;;;;3.47;0.90;;;24.60;88.90;;;;;;5092615;28;20516;-91
2022/08/30 12:55:58;;;;;;;2.67;0.70;;;24.70;90.70;;;;;;5092495;28;20047;-90
2022/08/30 12:58:36;;;;;;;2.75;0.68;;;24.60;89.90;;;;;;5092848;28;20474;-90
2022/08/30 13:01:31;;;;;;;4.40;0.75;;;24.50;90.80;;;;;;5075953;28;20485;-90
2022/08/30 13:04:19;;;;;;;2.42;0.60;;;24.60;90.10;;;;;;5092186;28;20049;-90
2022/08/30 13:06:52;;;;;;;0.65;0.38;;;24.80;90.90;;;;;;5092086;28;20043;-90
2022/08/30 13:09:44;;;;;;;3.03;1.40;;;25.00;91.60;;;;;;5092613;28;20039;-91
2022/08/30 13:12:20;;;;;;;1.50;0.60;;;25.00;82.00;;;;;;5071033;28;20378;-91
2022/08/30 13:14:46;;;;;;;1.35;0.60;;;24.90;87.90;;;;;;5092098;28;20050;-91